world map with UBEE marked

UBEE - Airport

This information may not be accurate or current and is not valid for navigation or flight planning. No warranty of fitness for any purpose is made or implied.

flag of Azerbaijan

Donate via PayPal

Additional information is available on the NEW Great Circle Mapper

Location
City:  Yevlakh, Yevlax (Yevlakh), Azerbaijan
Near (Alt.):Evlakh
ICAO:UBEE

Details
Type:Airport (Aerodrome, Airfield)
Use:Public/Civil
Latitude:40°37'55"N (40.631944)
Longitude:47°08'31"E (47.141944)
Elevation:49 ft (15 m)
Runways:1
Longest:5249 × 115 ft (1600 × 35 m)

Time
Timezone:UTC+4 (DST+6)
Local Time:

Weather
METAR:UBEE  041400Z 20003KT CAVOK 08/05 Q1031 R30/CLRD// NOSIG
TAF:UBEE  (expired)

Related Locations
Nearby:
Farthest:NEMO: 11700 mi / 18829 km
Pacific Ocean [Oceanic Pole of Inaccessibility (Point Nemo)]

Find:

   beyond  
but within

Other Information
Maps:
Links:
Sources:

  


 


Great Circle Mapper   Great Circle Mapper
Great Circle Mapper FAQ   Great Circle Mapper FAQ
  Karl's Home Page
KLSē   KLSē Home
   GC on Facebook
Airlines of the World   Airlines of the World
Donate via PayPal


Copyright © 2004-2019, Karl L. Swartz. All rights reserved.
All trademarks mentioned herein belong to their respective owners.

Please see credits for attribution and copyright information.

Karl Swartz <karl@kls2.com>
  Powered by FreeBSD
Valid HTML 4.01!
Labeled with ICRA
hCard Microformat
Geo Microformat